Time;durP1;ratioP1;P1;durP2;ratioP2;P2;SDS_P1;SDS_P2;PMS_P1;PMS_P2;Temp;Humidity;BMP_temperature;BMP_pressure;BME280_temperature;BME280_humidity;BME280_pressure;Samples;Min_cycle;Max_cycle;Signal;HPM_P1;HPM_P2
2023/11/20 00:00:50;;;;;;;9.93;2.40;;;12.40;72.20;;;;;;5087001;28;20472;-74
2023/11/20 00:03:15;;;;;;;14.43;3.20;;;12.40;71.20;;;;;;5084683;28;20383;-74
2023/11/20 00:05:41;;;;;;;13.07;2.57;;;12.40;72.10;;;;;;5082108;28;20399;-75
2023/11/20 00:08:07;;;;;;;10.40;3.10;;;12.30;72.30;;;;;;5074374;28;20731;-75
2023/11/20 00:10:34;;;;;;;12.52;2.95;;;12.30;73.00;;;;;;5073801;28;20384;-76
2023/11/20 00:12:59;;;;;;;10.48;2.83;;;12.40;71.30;;;;;;5072729;28;20383;-76
2023/11/20 00:15:25;;;;;;;19.60;3.50;;;12.40;71.10;;;;;;5072594;28;20742;-73
2023/11/20 00:17:50;;;;;;;12.93;3.00;;;12.40;70.20;;;;;;5071430;28;20380;-76
2023/11/20 00:20:16;;;;;;;16.30;3.07;;;12.40;69.40;;;;;;5071493;28;20490;-76
2023/11/20 00:22:42;;;;;;;14.25;3.40;;;12.40;69.40;;;;;;5071334;28;20383;-77
2023/11/20 00:25:07;;;;;;;11.80;3.20;;;12.40;69.40;;;;;;5071485;28;20380;-75
2023/11/20 00:27:33;;;;;;;10.00;2.85;;;12.40;69.50;;;;;;5071382;28;20384;-76
2023/11/20 00:29:58;;;;;;;14.02;3.15;;;12.40;67.90;;;;;;5072075;28;20398;-75
2023/11/20 00:32:25;;;;;;;9.25;2.70;;;12.40;69.10;;;;;;5071408;28;20384;-76
2023/11/20 00:34:51;;;;;;;14.25;2.95;;;12.40;68.70;;;;;;5071836;28;20392;-76
2023/11/20 00:37:18;;;;;;;13.68;3.17;;;12.40;67.80;;;;;;5071638;28;20384;-76
2023/11/20 00:39:43;;;;;;;9.82;3.00;;;12.40;68.40;;;;;;5071474;28;20388;-76
2023/11/20 00:42:09;;;;;;;19.13;3.22;;;12.40;68.00;;;;;;5070948;28;20394;-77
2023/11/20 00:44:34;;;;;;;18.20;3.70;;;12.50;67.30;;;;;;5071115;28;20403;-74
2023/11/20 00:47:00;;;;;;;13.40;2.57;;;12.50;67.10;;;;;;5071184;28;20434;-75
2023/11/20 00:49:26;;;;;;;14.13;2.90;;;12.50;67.10;;;;;;5070813;28;20935;-75
2023/11/20 00:51:51;;;;;;;12.55;3.00;;;12.50;66.10;;;;;;5071188;28;20858;-76
2023/11/20 00:54:17;;;;;;;15.10;2.92;;;12.50;67.30;;;;;;5071611;28;20384;-75
2023/11/20 00:56:42;;;;;;;11.87;2.60;;;12.50;67.80;;;;;;5071888;28;20387;-76
2023/11/20 00:59:08;;;;;;;14.23;3.20;;;12.40;67.20;;;;;;5071207;28;20930;-75
2023/11/20 01:01:37;;;;;;;12.40;2.77;;;12.40;68.30;;;;;;5073772;28;20392;-77
2023/11/20 01:04:03;;;;;;;12.80;2.70;;;12.40;68.80;;;;;;5072601;28;20383;-76
2023/11/20 01:06:29;;;;;;;10.82;3.00;;;12.50;67.70;;;;;;5072840;28;20466;-77
2023/11/20 01:08:54;;;;;;;9.50;2.87;;;12.40;67.90;;;;;;5072095;28;20426;-76
2023/11/20 01:11:20;;;;;;;13.85;2.70;;;12.40;68.70;;;;;;5072226;28;20395;-76
2023/11/20 01:13:45;;;;;;;6.95;2.28;;;12.50;67.00;;;;;;5071801;28;20474;-76
2023/11/20 01:16:12;;;;;;;10.00;2.80;;;12.40;68.10;;;;;;5072645;28;20391;-76
2023/11/20 01:18:38;;;;;;;10.18;2.22;;;12.40;68.00;;;;;;5072798;28;20395;-76
2023/11/20 01:21:04;;;;;;;13.18;2.85;;;12.40;68.50;;;;;;5077255;28;20742;-76
2023/11/20 01:23:29;;;;;;;9.32;2.13;;;12.40;66.70;;;;;;5074998;28;20807;-75
2023/11/20 01:25:55;;;;;;;10.90;2.10;;;12.40;67.80;;;;;;5074774;28;20452;-76
2023/11/20 01:28:22;;;;;;;10.70;2.10;;;12.40;67.30;;;;;;5077015;28;20458;-75
2023/11/20 01:30:48;;;;;;;4.78;1.55;;;12.30;69.60;;;;;;5077739;28;20430;-76
2023/11/20 01:33:13;;;;;;;5.88;1.80;;;12.30;71.30;;;;;;5073536;28;20379;-75
2023/11/20 01:35:39;;;;;;;6.50;1.75;;;12.30;73.20;;;;;;5071623;28;20433;-77
2023/11/20 01:38:05;;;;;;;11.57;2.20;;;12.20;74.60;;;;;;5070635;28;20791;-75
2023/11/20 01:40:31;;;;;;;7.57;1.97;;;12.10;77.60;;;;;;5072028;28;20388;-75
2023/11/20 01:42:57;;;;;;;5.63;1.90;;;12.10;78.50;;;;;;5069922;28;20695;-74
2023/11/20 01:45:22;;;;;;;5.47;1.57;;;12.00;80.30;;;;;;5071120;28;20437;-75
2023/11/20 01:47:48;;;;;;;8.43;1.70;;;12.00;80.70;;;;;;5070655;28;20444;-75
2023/11/20 01:50:15;;;;;;;8.98;1.80;;;11.90;81.00;;;;;;5071660;28;20384;-77
2023/11/20 01:52:47;;;;;;;6.00;2.10;;;11.80;82.60;;;;;;5070468;28;20388;-74
2023/11/20 01:55:13;;;;;;;8.40;2.15;;;11.80;84.40;;;;;;5071662;28;20545;-77
2023/11/20 01:57:43;;;;;;;8.68;2.65;;;11.70;84.60;;;;;;5071553;28;20463;-76
2023/11/20 02:00:10;;;;;;;12.50;2.60;;;11.70;84.40;;;;;;5074389;28;20483;-75
2023/11/20 02:02:39;;;;;;;9.80;2.50;;;11.80;84.30;;;;;;5076820;28;20447;-76
2023/11/20 02:05:05;;;;;;;8.25;2.20;;;11.80;83.20;;;;;;5074421;28;20383;-75
2023/11/20 02:07:33;;;;;;;12.47;2.80;;;11.80;82.60;;;;;;5074614;28;20606;-75
2023/11/20 02:09:59;;;;;;;14.85;3.03;;;11.90;81.70;;;;;;5074438;28;20387;-77
2023/11/20 02:12:25;;;;;;;8.13;2.50;;;11.90;81.00;;;;;;5099794;22;20495;-70
2023/11/20 02:14:50;;;;;;;12.70;2.83;;;11.90;80.00;;;;;;5093359;28;20382;-71
2023/11/20 02:17:16;;;;;;;13.07;3.03;;;12.00;78.80;;;;;;5093343;28;20462;-70
2023/11/20 02:19:48;;;;;;;12.50;3.10;;;12.00;78.10;;;;;;5093023;28;20394;-71
2023/11/20 02:22:15;;;;;;;11.13;3.20;;;12.00;77.50;;;;;;5093608;28;20374;-70
2023/11/20 02:24:42;;;;;;;12.63;3.15;;;12.00;76.30;;;;;;5093279;28;20374;-70
2023/11/20 02:27:32;;;;;;;14.02;3.20;;;12.00;75.70;;;;;;5093171;28;20443;-71
2023/11/20 02:30:01;;;;;;;17.90;3.30;;;12.00;76.90;;;;;;5093008;28;20783;-70
2023/11/20 02:32:28;;;;;;;15.30;3.33;;;12.00;75.00;;;;;;5092898;28;20378;-71
2023/11/20 02:34:54;;;;;;;13.70;3.00;;;12.10;74.60;;;;;;5092998;28;20426;-71
2023/11/20 02:37:19;;;;;;;17.70;3.03;;;12.10;73.80;;;;;;5092974;28;20763;-71
2023/11/20 02:39:51;;;;;;;9.77;2.60;;;12.00;73.90;;;;;;5092936;28;20467;-70
2023/11/20 02:42:17;;;;;;;14.70;3.10;;;12.10;72.90;;;;;;5093142;28;20386;-73
2023/11/20 02:44:43;;;;;;;13.50;2.90;;;12.10;72.00;;;;;;5093021;28;20465;-71
2023/11/20 02:47:09;;;;;;;18.13;3.15;;;12.10;71.60;;;;;;5092927;28;20461;-70
2023/11/20 02:49:35;;;;;;;17.40;3.63;;;12.10;70.90;;;;;;5092770;28;20584;-71
2023/11/20 02:52:02;;;;;;;13.07;2.80;;;12.10;71.30;;;;;;5092669;28;20748;-71
2023/11/20 02:54:28;;;;;;;15.25;3.60;;;12.10;70.70;;;;;;5092710;28;20406;-69
2023/11/20 02:56:54;;;;;;;13.48;3.50;;;12.20;69.60;;;;;;5092589;28;20879;-70
2023/11/20 02:59:19;;;;;;;15.00;3.10;;;12.20;68.60;;;;;;5092497;28;20872;-70
2023/11/20 03:01:47;;;;;;;12.23;3.07;;;12.20;68.20;;;;;;5092724;28;20450;-70
2023/11/20 03:04:12;;;;;;;12.30;3.40;;;12.20;68.30;;;;;;5092774;28;20778;-70
2023/11/20 03:06:38;;;;;;;16.45;3.20;;;12.20;68.00;;;;;;5092494;28;20374;-71
2023/11/20 03:09:03;;;;;;;11.93;3.15;;;12.20;68.30;;;;;;5092263;28;20386;-71
2023/11/20 03:11:29;;;;;;;18.27;3.70;;;12.20;67.00;;;;;;5092260;28;20385;-70
2023/11/20 03:13:54;;;;;;;11.90;2.78;;;12.20;66.60;;;;;;5092290;28;20401;-70
2023/11/20 03:16:21;;;;;;;17.17;2.97;;;12.20;67.00;;;;;;5092261;28;20425;-71
2023/11/20 03:18:46;;;;;;;15.40;3.95;;;12.20;67.20;;;;;;5091950;28;20960;-71
2023/11/20 03:21:12;;;;;;;10.77;3.20;;;12.10;67.10;;;;;;5092140;28;20473;-71
2023/11/20 03:23:37;;;;;;;17.23;4.00;;;12.20;66.40;;;;;;5092195;28;20417;-71
2023/11/20 03:26:03;;;;;;;16.33;3.17;;;12.20;66.50;;;;;;5092156;28;20381;-71
2023/11/20 03:28:29;;;;;;;18.30;3.25;;;12.10;67.30;;;;;;5092244;28;20451;-71
2023/11/20 03:30:54;;;;;;;15.63;3.47;;;12.10;66.60;;;;;;5092380;28;20382;-71
2023/11/20 03:33:20;;;;;;;20.23;3.60;;;12.10;66.60;;;;;;5092448;28;20396;-71
2023/11/20 03:35:46;;;;;;;19.30;3.67;;;12.20;66.90;;;;;;5092350;28;20406;-71
2023/11/20 03:38:11;;;;;;;13.37;3.20;;;12.10;66.80;;;;;;5091882;28;21009;-71
2023/11/20 03:40:37;;;;;;;11.03;3.30;;;12.20;66.00;;;;;;5092245;28;20890;-71
2023/11/20 03:43:02;;;;;;;12.07;3.20;;;12.10;67.10;;;;;;5092390;28;20950;-71
2023/11/20 03:45:28;;;;;;;14.32;3.05;;;12.20;65.00;;;;;;5092657;28;20370;-71
2023/11/20 03:47:54;;;;;;;11.60;2.80;;;12.10;66.30;;;;;;5097530;28;20457;-71
2023/11/20 03:50:19;;;;;;;10.02;3.10;;;12.20;64.90;;;;;;5098609;28;20428;-71
2023/11/20 03:52:45;;;;;;;13.83;2.93;;;12.10;66.20;;;;;;5096730;28;20424;-71
2023/11/20 03:55:10;;;;;;;12.57;3.40;;;12.20;64.70;;;;;;5095783;28;20805;-71
2023/11/20 03:57:36;;;;;;;15.70;3.70;;;12.20;65.20;;;;;;5091108;28;20385;-70
2023/11/20 04:00:03;;;;;;;19.40;6.60;;;12.20;65.40;;;;;;5091205;28;20417;-70
2023/11/20 04:02:28;;;;;;;19.45;7.18;;;12.20;64.80;;;;;;5092848;28;20424;-70
2023/11/20 04:04:54;;;;;;;10.35;3.20;;;12.20;64.90;;;;;;5094936;28;20378;-71
2023/11/20 04:07:19;;;;;;;13.98;3.70;;;12.20;65.10;;;;;;5094241;28;20794;-70
2023/11/20 04:09:45;;;;;;;13.57;3.10;;;12.20;65.20;;;;;;5095389;28;20884;-71
2023/11/20 04:12:11;;;;;;;11.82;3.20;;;12.10;66.20;;;;;;5095452;28;20732;-71
2023/11/20 04:14:36;;;;;;;15.13;2.90;;;12.20;65.40;;;;;;5095354;28;20394;-71
2023/11/20 04:17:02;;;;;;;8.97;2.63;;;12.20;65.70;;;;;;5096314;28;20382;-70
2023/11/20 04:19:27;;;;;;;12.10;2.47;;;12.10;65.50;;;;;;5093990;28;20495;-73
2023/11/20 04:21:53;;;;;;;16.25;4.40;;;12.10;66.20;;;;;;5092313;28;20389;-71
2023/11/20 04:24:19;;;;;;;12.70;3.08;;;12.10;66.70;;;;;;5090809;28;20560;-71
2023/11/20 04:26:44;;;;;;;10.15;2.90;;;12.00;68.00;;;;;;5090759;28;20408;-71
2023/11/20 04:29:10;;;;;;;11.40;2.70;;;12.00;68.90;;;;;;5090464;28;20378;-71
2023/11/20 04:31:35;;;;;;;7.10;2.50;;;12.00;68.50;;;;;;5090581;28;20425;-71
2023/11/20 04:34:01;;;;;;;11.17;2.07;;;12.00;68.30;;;;;;5090537;28;20382;-71
2023/11/20 04:36:26;;;;;;;16.20;2.83;;;11.90;69.20;;;;;;5090655;28;20483;-71
2023/11/20 04:38:52;;;;;;;8.45;2.30;;;11.90;69.50;;;;;;5090101;28;20398;-71
2023/11/20 04:41:17;;;;;;;8.73;2.30;;;11.80;70.40;;;;;;5090567;28;20431;-70
2023/11/20 04:43:43;;;;;;;8.90;2.40;;;11.80;70.30;;;;;;5090411;28;20381;-71
2023/11/20 04:46:09;;;;;;;9.57;2.10;;;11.80;70.60;;;;;;5090577;28;20421;-69
2023/11/20 04:48:35;;;;;;;7.77;2.60;;;11.80;70.70;;;;;;5090402;28;20994;-70
2023/11/20 04:51:00;;;;;;;7.05;2.35;;;11.80;70.20;;;;;;5090083;28;20883;-70
2023/11/20 04:53:26;;;;;;;6.60;2.50;;;11.90;70.40;;;;;;5090404;28;20389;-70
2023/11/20 04:55:52;;;;;;;8.40;2.40;;;11.90;70.60;;;;;;5088932;28;20888;-70
2023/11/20 04:58:21;;;;;;;8.83;3.53;;;11.90;70.30;;;;;;5090097;28;20465;-70
2023/11/20 05:00:48;;;;;;;9.85;2.55;;;11.90;71.80;;;;;;5089858;28;20394;-70
2023/11/20 05:03:13;;;;;;;7.38;1.83;;;12.00;70.90;;;;;;5090219;28;20402;-69
2023/11/20 05:05:39;;;;;;;12.20;3.03;;;12.00;70.50;;;;;;5090240;28;20471;-70
2023/11/20 05:08:04;;;;;;;8.15;2.80;;;12.00;71.70;;;;;;5090079;28;20378;-69
2023/11/20 05:10:30;;;;;;;10.17;3.07;;;11.90;72.70;;;;;;5089906;28;20384;-70
2023/11/20 05:12:56;;;;;;;10.73;2.80;;;11.90;72.80;;;;;;5089992;28;20398;-69
2023/11/20 05:15:21;;;;;;;13.27;2.80;;;12.00;72.60;;;;;;5090221;28;20382;-70
2023/11/20 05:17:47;;;;;;;8.45;2.40;;;11.90;73.00;;;;;;5089989;28;20389;-70
2023/11/20 05:20:13;;;;;;;8.23;2.85;;;12.00;72.40;;;;;;5090388;28;20394;-70
2023/11/20 05:22:38;;;;;;;12.40;2.50;;;12.00;72.50;;;;;;5090209;28;20868;-70
2023/11/20 05:25:05;;;;;;;12.30;2.92;;;12.00;73.00;;;;;;5090128;28;20789;-70
2023/11/20 05:27:30;;;;;;;8.40;3.00;;;12.00;71.60;;;;;;5089595;28;20382;-69
2023/11/20 05:29:56;;;;;;;10.13;3.53;;;12.00;72.80;;;;;;5089782;28;20382;-70
2023/11/20 05:32:21;;;;;;;14.27;2.97;;;11.90;74.20;;;;;;5090071;28;20397;-70
2023/11/20 05:34:48;;;;;;;10.33;3.23;;;11.90;73.50;;;;;;5093050;28;20381;-69
2023/11/20 05:37:13;;;;;;;11.68;3.63;;;11.90;73.50;;;;;;5093826;28;20701;-70
2023/11/20 05:39:39;;;;;;;13.13;3.23;;;11.80;73.40;;;;;;5093695;28;20394;-70
2023/11/20 05:42:06;;;;;;;14.47;3.80;;;11.80;74.00;;;;;;5094004;28;20393;-70
2023/11/20 05:44:32;;;;;;;16.13;3.60;;;11.80;73.80;;;;;;5093678;28;20382;-69
2023/11/20 05:46:57;;;;;;;13.70;4.03;;;11.90;72.00;;;;;;5093850;28;20442;-69
2023/11/20 05:49:23;;;;;;;14.57;3.20;;;11.80;72.10;;;;;;5093689;28;20386;-69
2023/11/20 05:51:48;;;;;;;9.70;3.00;;;11.90;70.80;;;;;;5093401;28;20412;-70
2023/11/20 05:54:14;;;;;;;19.50;3.40;;;11.80;71.50;;;;;;5093539;28;20386;-70
2023/11/20 05:56:40;;;;;;;12.85;3.80;;;11.90;70.10;;;;;;5092435;28;20386;-70
2023/11/20 05:59:08;;;;;;;15.40;3.67;;;11.90;68.60;;;;;;5093537;28;20393;-70
2023/11/20 06:01:40;;;;;;;19.60;3.73;;;11.90;67.90;;;;;;5093770;28;20402;-70
2023/11/20 06:04:08;;;;;;;16.88;4.35;;;11.90;68.00;;;;;;5093429;28;20377;-70
2023/11/20 06:06:37;;;;;;;15.23;3.70;;;11.90;67.30;;;;;;5093112;28;20417;-70
2023/11/20 06:09:05;;;;;;;15.93;4.03;;;11.90;66.70;;;;;;5092837;28;20798;-70
2023/11/20 06:11:31;;;;;;;16.25;3.90;;;11.80;68.30;;;;;;5093414;28;20386;-69
2023/11/20 06:13:58;;;;;;;13.00;3.50;;;11.80;66.70;;;;;;5093138;28;20386;-69
2023/11/20 06:16:25;;;;;;;19.83;3.90;;;11.80;67.90;;;;;;5093425;28;20892;-70
2023/11/20 06:18:50;;;;;;;16.88;3.70;;;11.80;66.70;;;;;;5092815;28;20907;-70
2023/11/20 06:21:16;;;;;;;24.30;4.88;;;11.80;65.90;;;;;;5093015;28;20390;-71
2023/11/20 06:23:41;;;;;;;13.85;3.58;;;11.70;66.80;;;;;;5093010;28;20366;-70
2023/11/20 06:26:07;;;;;;;22.83;3.90;;;11.80;66.30;;;;;;5093230;28;20450;-70
2023/11/20 06:28:32;;;;;;;19.17;4.00;;;11.80;65.60;;;;;;5092319;28;20486;-70
2023/11/20 06:30:58;;;;;;;14.50;3.90;;;11.80;65.60;;;;;;5092668;28;20390;-70
2023/11/20 06:33:23;;;;;;;19.17;4.53;;;11.80;66.00;;;;;;5093022;28;20398;-70
2023/11/20 06:35:49;;;;;;;19.50;3.75;;;11.80;65.80;;;;;;5091072;28;20386;-70
2023/11/20 06:38:15;;;;;;;14.80;3.72;;;11.90;64.50;;;;;;5092537;28;20436;-70
2023/11/20 06:40:41;;;;;;;18.70;4.57;;;11.90;64.00;;;;;;5092196;28;20880;-70
2023/11/20 06:43:07;;;;;;;26.92;4.13;;;11.90;64.30;;;;;;5092239;28;20378;-70
2023/11/20 06:45:33;;;;;;;14.97;3.70;;;11.90;63.40;;;;;;5091379;28;20410;-72
2023/11/20 06:47:58;;;;;;;24.53;4.87;;;11.80;64.30;;;;;;5091931;28;20362;-71
2023/11/20 06:50:25;;;;;;;19.77;4.33;;;11.80;64.60;;;;;;5091873;28;20385;-70
2023/11/20 06:52:54;;;;;;;22.15;4.45;;;11.70;64.20;;;;;;5092285;28;20405;-71
2023/11/20 06:55:19;;;;;;;15.82;3.83;;;11.80;64.90;;;;;;5092181;28;20382;-71
2023/11/20 06:57:45;;;;;;;21.77;4.13;;;11.70;65.80;;;;;;5092208;28;20386;-70
2023/11/20 07:00:12;;;;;;;24.73;4.35;;;11.70;64.60;;;;;;5092088;28;20444;-70
2023/11/20 07:02:38;;;;;;;24.00;4.32;;;11.60;65.50;;;;;;5092123;28;20790;-70
2023/11/20 07:05:04;;;;;;;24.58;4.45;;;11.70;65.40;;;;;;5092235;28;20381;-70
2023/11/20 07:07:30;;;;;;;22.92;4.80;;;11.60;65.10;;;;;;5092099;28;20382;-71
2023/11/20 07:09:55;;;;;;;14.88;4.65;;;11.60;65.70;;;;;;5091910;28;20377;-71
2023/11/20 07:12:21;;;;;;;21.80;4.45;;;11.70;65.90;;;;;;5092184;28;20401;-70
2023/11/20 07:14:47;;;;;;;22.52;4.68;;;11.60;65.90;;;;;;5092502;28;20390;-70
2023/11/20 07:17:14;;;;;;;20.20;5.00;;;11.70;65.60;;;;;;5092146;28;20390;-70
2023/11/20 07:19:40;;;;;;;22.88;4.72;;;11.60;65.90;;;;;;5091914;28;20402;-69
2023/11/20 07:22:08;;;;;;;17.23;4.90;;;11.50;66.40;;;;;;5091971;28;20389;-70
2023/11/20 07:24:33;;;;;;;16.27;4.70;;;11.50;66.00;;;;;;5092042;28;20461;-71
2023/11/20 07:26:59;;;;;;;24.10;4.10;;;11.50;65.30;;;;;;5091864;28;20409;-70
2023/11/20 07:29:24;;;;;;;23.30;4.70;;;11.50;66.30;;;;;;5091318;28;20386;-70
2023/11/20 07:31:50;;;;;;;20.47;4.30;;;11.40;67.50;;;;;;5091405;28;20377;-70
2023/11/20 07:34:18;;;;;;;22.47;3.93;;;11.50;66.80;;;;;;5091585;28;20386;-69
2023/11/20 07:36:44;;;;;;;13.27;3.90;;;11.60;65.50;;;;;;5091398;28;20431;-70
2023/11/20 07:39:09;;;;;;;24.38;4.75;;;11.60;64.30;;;;;;5091470;28;20764;-70
2023/11/20 07:41:35;;;;;;;22.40;4.40;;;11.60;64.80;;;;;;5091530;28;20406;-70
2023/11/20 07:44:01;;;;;;;15.07;4.00;;;11.70;65.30;;;;;;5091522;28;20804;-69
2023/11/20 07:46:27;;;;;;;22.33;4.50;;;11.70;63.70;;;;;;5091220;28;20410;-70
2023/11/20 07:48:54;;;;;;;21.80;4.28;;;11.70;62.80;;;;;;5091197;28;20886;-69
2023/11/20 07:51:20;;;;;;;33.30;5.60;;;11.80;61.90;;;;;;5091161;28;20438;-70
2023/11/20 07:53:45;;;;;;;20.73;4.18;;;11.80;60.90;;;;;;5091294;28;20397;-69
2023/11/20 07:56:13;;;;;;;24.48;4.60;;;11.90;59.80;;;;;;5079981;28;20739;-74
2023/11/20 07:58:39;;;;;;;20.38;4.22;;;11.80;59.70;;;;;;5086780;28;20412;-70
2023/11/20 08:01:07;;;;;;;20.25;4.93;;;11.80;59.20;;;;;;5090715;28;20480;-70
2023/11/20 08:03:33;;;;;;;18.13;4.25;;;11.80;59.00;;;;;;5091651;28;20812;-70
2023/11/20 08:05:59;;;;;;;18.67;4.28;;;11.90;58.70;;;;;;5090689;28;20433;-70
2023/11/20 08:08:24;;;;;;;25.08;4.38;;;11.90;59.10;;;;;;5091110;28;20377;-70
2023/11/20 08:10:50;;;;;;;19.87;4.57;;;11.90;59.20;;;;;;5090846;28;20380;-70
2023/11/20 08:13:15;;;;;;;18.83;4.50;;;12.00;57.20;;;;;;5089773;28;20473;-70
2023/11/20 08:15:41;;;;;;;27.13;5.30;;;12.10;57.70;;;;;;5090679;28;20389;-71
2023/11/20 08:18:06;;;;;;;21.08;4.40;;;12.30;56.90;;;;;;5091172;28;20378;-71
2023/11/20 08:20:32;;;;;;;23.55;4.60;;;12.30;55.80;;;;;;5085331;28;20455;-70
2023/11/20 08:22:58;;;;;;;21.63;4.23;;;12.20;56.20;;;;;;5090626;28;20480;-71
2023/11/20 08:25:24;;;;;;;22.50;4.70;;;12.20;56.40;;;;;;5090584;28;20713;-71
2023/11/20 08:27:50;;;;;;;19.17;3.92;;;12.20;56.80;;;;;;5084552;28;20394;-71
2023/11/20 08:30:15;;;;;;;20.48;4.20;;;12.10;56.90;;;;;;5071106;28;20386;-72
2023/11/20 08:32:41;;;;;;;21.55;4.82;;;12.10;57.70;;;;;;5071825;28;20523;-71
2023/11/20 08:35:09;;;;;;;20.77;3.97;;;12.10;57.50;;;;;;5070856;28;20441;-71
2023/11/20 08:37:34;;;;;;;27.80;4.80;;;12.20;57.10;;;;;;5070501;28;20478;-71
2023/11/20 08:40:00;;;;;;;17.67;4.15;;;12.20;56.00;;;;;;5076754;28;20547;-70
2023/11/20 08:42:26;;;;;;;18.70;3.95;;;12.30;56.90;;;;;;5090705;28;20978;-71
2023/11/20 08:44:53;;;;;;;19.55;4.40;;;12.30;56.00;;;;;;5084742;28;21038;-73
2023/11/20 08:47:20;;;;;;;23.77;4.35;;;12.40;55.50;;;;;;5075760;28;20477;-72
2023/11/20 08:49:45;;;;;;;22.58;4.70;;;12.50;54.40;;;;;;5090020;28;20396;-72
2023/11/20 08:52:11;;;;;;;19.85;4.35;;;12.60;53.60;;;;;;5090030;28;20824;-72
2023/11/20 08:54:36;;;;;;;19.08;4.53;;;12.80;53.00;;;;;;5089776;28;20468;-73
2023/11/20 08:57:02;;;;;;;17.88;3.80;;;12.80;52.10;;;;;;5090626;28;20382;-73
2023/11/20 08:59:28;;;;;;;18.40;4.50;;;12.80;52.70;;;;;;5090235;28;20406;-74
2023/11/20 09:01:53;;;;;;;14.73;3.80;;;12.80;52.10;;;;;;5088567;28;20804;-72
2023/11/20 09:04:19;;;;;;;15.03;4.20;;;12.80;51.60;;;;;;5090048;28;20416;-70
2023/11/20 09:06:45;;;;;;;21.20;4.20;;;12.90;52.10;;;;;;5070875;28;20390;-70
2023/11/20 09:09:10;;;;;;;17.02;3.53;;;12.90;51.80;;;;;;5074916;28;20485;-71
2023/11/20 09:11:36;;;;;;;21.85;4.38;;;12.90;51.70;;;;;;5087338;28;20394;-70
2023/11/20 09:14:02;;;;;;;13.40;4.13;;;12.90;51.40;;;;;;5069817;28;20422;-69
2023/11/20 09:16:27;;;;;;;19.05;5.07;;;12.90;51.30;;;;;;5074187;28;20838;-69
2023/11/20 09:18:53;;;;;;;17.80;4.13;;;12.90;51.30;;;;;;5089525;28;20908;-70
2023/11/20 09:21:19;;;;;;;52.97;12.93;;;12.90;51.40;;;;;;5074411;28;20392;-69
2023/11/20 09:23:44;;;;;;;30.30;9.03;;;12.80;51.70;;;;;;5069518;28;20862;-69
2023/11/20 09:26:11;;;;;;;18.87;5.27;;;12.80;52.20;;;;;;5078294;28;20798;-69
2023/11/20 09:28:42;;;;;;;21.05;4.00;;;12.80;52.10;;;;;;5086471;28;20404;-69
2023/11/20 09:31:15;;;;;;;19.50;4.30;;;12.80;54.50;;;;;;5087096;28;20481;-70
2023/11/20 09:33:40;;;;;;;21.02;4.10;;;12.70;55.50;;;;;;5086971;28;20394;-70
2023/11/20 09:36:06;;;;;;;18.00;3.43;;;12.70;56.40;;;;;;5081864;28;20401;-69
2023/11/20 09:38:35;;;;;;;19.80;3.88;;;12.80;56.40;;;;;;5087392;28;20390;-69
2023/11/20 09:41:01;;;;;;;18.00;3.95;;;12.70;55.90;;;;;;5069264;28;20387;-69
2023/11/20 09:43:29;;;;;;;17.73;3.53;;;12.70;56.30;;;;;;5079639;28;20438;-69
2023/11/20 09:46:02;;;;;;;16.30;3.70;;;12.70;56.20;;;;;;5087793;28;20543;-70
2023/11/20 09:48:32;;;;;;;13.65;3.47;;;12.70;57.80;;;;;;5089212;28;20393;-69
2023/11/20 09:50:58;;;;;;;14.60;3.55;;;12.80;57.90;;;;;;5087218;28;20370;-69
2023/11/20 09:53:34;;;;;;;20.88;4.00;;;12.80;57.50;;;;;;5068766;28;20513;-70
2023/11/20 09:56:01;;;;;;;16.08;3.88;;;12.90;59.50;;;;;;5077555;28;20790;-69
2023/11/20 09:58:29;;;;;;;13.13;3.67;;;12.80;60.00;;;;;;5089325;28;20423;-69
2023/11/20 10:01:01;;;;;;;14.13;3.30;;;12.80;59.40;;;;;;5089538;28;20406;-69
2023/11/20 10:03:27;;;;;;;16.95;3.70;;;12.90;58.00;;;;;;5089628;28;20378;-69
2023/11/20 10:05:53;;;;;;;12.53;3.30;;;13.00;58.60;;;;;;5089668;28;20370;-69
2023/11/20 10:08:19;;;;;;;15.57;3.97;;;13.10;57.70;;;;;;5089475;28;20786;-69
2023/11/20 10:10:48;;;;;;;13.60;3.40;;;13.20;54.30;;;;;;5089307;28;20382;-69
2023/11/20 10:13:15;;;;;;;17.25;4.10;;;13.30;53.60;;;;;;5089294;28;20418;-70
2023/11/20 10:15:41;;;;;;;18.87;3.90;;;13.40;54.00;;;;;;5089577;28;20378;-69
2023/11/20 10:18:06;;;;;;;15.83;3.90;;;13.40;54.10;;;;;;5089809;28;20759;-69
2023/11/20 10:20:49;;;;;;;12.60;3.97;;;13.30;54.50;;;;;;5092137;28;20484;-69
2023/11/20 10:23:15;;;;;;;13.50;3.10;;;13.20;53.60;;;;;;5093234;28;20439;-69
2023/11/20 10:25:45;;;;;;;12.80;3.50;;;13.30;53.00;;;;;;5093611;28;20481;-69
2023/11/20 10:28:13;;;;;;;11.00;3.00;;;13.40;52.50;;;;;;5093407;28;20374;-70
2023/11/20 10:30:43;;;;;;;14.48;3.13;;;13.60;52.00;;;;;;5092903;28;20415;-69
2023/11/20 10:33:19;;;;;;;13.43;2.90;;;13.70;49.60;;;;;;5093174;28;20389;-70
2023/11/20 10:35:45;;;;;;;13.80;3.30;;;13.80;48.80;;;;;;5093318;28;20382;-69
2023/11/20 10:38:11;;;;;;;9.80;2.90;;;13.90;48.40;;;;;;5093541;28;20382;-69
2023/11/20 10:40:42;;;;;;;12.10;3.13;;;13.80;48.00;;;;;;5093431;28;20409;-69
2023/11/20 10:43:09;;;;;;;9.20;2.70;;;13.60;48.10;;;;;;5094075;28;20473;-69
2023/11/20 10:45:39;;;;;;;11.02;2.78;;;13.40;49.50;;;;;;5095707;28;20375;-70
2023/11/20 10:48:07;;;;;;;11.90;2.70;;;13.40;48.10;;;;;;5099454;28;20721;-71
2023/11/20 10:50:35;;;;;;;11.18;2.60;;;13.40;48.80;;;;;;5099089;28;20381;-70
2023/11/20 10:53:08;;;;;;;13.73;3.47;;;13.50;49.50;;;;;;5098824;28;20390;-70
2023/11/20 10:55:55;;;;;;;10.47;2.50;;;13.70;47.10;;;;;;5093362;28;20454;-69
2023/11/20 10:58:23;;;;;;;12.23;2.70;;;13.60;47.20;;;;;;5092595;28;20443;-70
2023/11/20 11:00:49;;;;;;;13.65;3.17;;;13.50;46.20;;;;;;5094169;28;20840;-69
2023/11/20 11:03:16;;;;;;;10.23;2.60;;;13.50;48.20;;;;;;5093255;28;20381;-69
2023/11/20 11:05:45;;;;;;;13.00;2.60;;;13.50;47.10;;;;;;5092520;28;20472;-69
2023/11/20 11:08:11;;;;;;;9.68;2.47;;;13.40;48.40;;;;;;5093881;28;20430;-71
2023/11/20 11:10:41;;;;;;;12.63;2.80;;;13.50;48.50;;;;;;5094708;28;20385;-70
2023/11/20 11:13:08;;;;;;;12.13;2.60;;;13.60;47.20;;;;;;5094513;28;20402;-70
2023/11/20 11:15:35;;;;;;;8.95;2.53;;;13.70;47.50;;;;;;5095357;28;20749;-70
2023/11/20 11:18:05;;;;;;;11.48;2.80;;;13.80;45.20;;;;;;5094852;28;20390;-69
2023/11/20 11:20:53;;;;;;;8.10;2.40;;;13.80;46.40;;;;;;5092144;28;20895;-70
2023/11/20 11:23:29;;;;;;;8.85;2.30;;;13.90;45.80;;;;;;5092075;28;20413;-70
2023/11/20 11:26:12;;;;;;;7.97;2.40;;;14.00;45.00;;;;;;5092864;28;20382;-71
2023/11/20 11:28:42;;;;;;;11.30;2.70;;;14.10;45.40;;;;;;5091860;28;20385;-70
2023/11/20 11:31:09;;;;;;;15.65;3.42;;;14.20;44.70;;;;;;5091826;28;20445;-69
2023/11/20 11:33:53;;;;;;;9.18;3.45;;;14.30;44.00;;;;;;5092165;28;20375;-69
2023/11/20 11:36:21;;;;;;;9.20;2.30;;;14.20;43.70;;;;;;5091982;28;20375;-70
2023/11/20 11:39:05;;;;;;;11.13;2.10;;;14.10;42.30;;;;;;5091814;28;20398;-69
2023/11/20 11:42:09;;;;;;;11.03;2.40;;;14.00;42.50;;;;;;5091927;28;20374;-70
2023/11/20 11:44:59;;;;;;;9.13;2.53;;;14.00;41.30;;;;;;5091851;28;20868;-70
2023/11/20 11:47:27;;;;;;;13.18;2.10;;;13.80;41.50;;;;;;5091103;28;20412;-71
2023/11/20 11:49:55;;;;;;;8.18;1.75;;;13.70;42.00;;;;;;5091629;28;20492;-70
2023/11/20 11:52:31;;;;;;;8.70;1.90;;;13.60;42.40;;;;;;5091338;28;20382;-71
2023/11/20 11:55:21;;;;;;;5.07;1.70;;;13.50;43.00;;;;;;5091306;28;20382;-70
2023/11/20 11:58:03;;;;;;;6.35;2.00;;;13.40;44.10;;;;;;5089903;28;20878;-70
2023/11/20 12:00:30;;;;;;;4.72;1.40;;;13.40;44.40;;;;;;5091296;28;20402;-69
2023/11/20 12:03:11;;;;;;;7.30;2.10;;;13.40;43.20;;;;;;5091486;28;20388;-70
2023/11/20 12:05:55;;;;;;;6.20;1.40;;;13.40;44.60;;;;;;5090476;28;20398;-70
2023/11/20 12:08:22;;;;;;;7.15;1.73;;;13.30;43.50;;;;;;5091494;28;20386;-70
2023/11/20 12:10:52;;;;;;;4.53;1.40;;;13.20;43.30;;;;;;5090985;28;20736;-70
2023/11/20 12:13:26;;;;;;;12.07;1.80;;;13.30;43.90;;;;;;5090748;28;20645;-74
2023/11/20 12:16:03;;;;;;;4.10;1.88;;;13.20;44.90;;;;;;5091354;28;20477;-72
2023/11/20 12:18:37;;;;;;;3.97;1.40;;;13.20;44.20;;;;;;5080729;28;20418;-71
2023/11/20 12:21:08;;;;;;;8.10;1.70;;;13.20;44.70;;;;;;5070061;28;20566;-69
2023/11/20 12:23:41;;;;;;;4.30;1.60;;;13.20;45.30;;;;;;5080189;28;20825;-69
2023/11/20 12:26:13;;;;;;;6.97;1.85;;;13.20;44.90;;;;;;5081058;28;20467;-72
2023/11/20 12:28:40;;;;;;;4.60;1.50;;;13.20;45.30;;;;;;5068312;28;20433;-72
2023/11/20 12:31:10;;;;;;;5.32;1.75;;;13.10;45.50;;;;;;5085391;28;20394;-71
2023/11/20 12:33:41;;;;;;;6.67;1.60;;;13.20;47.00;;;;;;5088379;28;20472;-70
2023/11/20 12:36:12;;;;;;;5.25;1.73;;;13.20;46.30;;;;;;5087377;28;20414;-68
2023/11/20 12:38:38;;;;;;;10.00;2.17;;;13.20;45.40;;;;;;5088267;28;20884;-68